< < Back
Terminal Aerodrome Forecast


Current Version              Previous Versions:   1  2  3  4  5  6  7  8  9  

Terminal Aerodrome Forecast

114
FTUS44 KBMX 242300
TAFANB
TAF
KANB 242325Z 2500/2524 00000KT P6SM SKC=

Latest METAR

505
SAUS70 KWBC 251158
MTRANB
METAR KANB 251153Z AUTO 00000KT 10SM CLR 04/03 A3011 RMK AO2 SLP197
T00440028 10072 20039 51012


USA.gov is the U.S. government's official web portal to all federal, state and local government web resources and services.